createdAt,value
2018-08-18T00:00:39.038Z,80.08
2018-08-18T00:01:39.010Z,80.08
2018-08-18T00:02:38.971Z,79.99
2018-08-18T00:03:38.967Z,80.38
2018-08-18T00:04:38.901Z,80.86
2018-08-18T00:05:38.882Z,80.95
2018-08-18T00:06:38.849Z,80.95
2018-08-18T00:07:38.811Z,80.76
2018-08-18T00:08:39.144Z,80.82
2018-08-18T00:09:38.753Z,80.72
2018-08-18T00:10:38.720Z,80.72
2018-08-18T00:12:38.743Z,80.43
2018-08-18T00:13:38.635Z,80.28
2018-08-18T00:14:38.595Z,81.11
2018-08-18T00:15:38.603Z,81.44
2018-08-18T00:16:38.559Z,81.40
2018-08-18T00:17:38.702Z,81.40
2018-08-18T00:18:38.473Z,80.95
2018-08-18T00:19:38.446Z,80.86
2018-08-18T00:20:38.417Z,81.15
2018-08-18T00:21:38.382Z,80.86
2018-08-18T00:22:38.341Z,81.30
2018-08-18T00:23:38.325Z,81.30
2018-08-18T00:24:38.285Z,81.49
2018-08-18T00:25:38.254Z,81.30
2018-08-18T00:26:38.230Z,81.49
2018-08-18T00:27:38.188Z,82.07
2018-08-18T00:28:38.164Z,81.59
2018-08-18T00:29:38.142Z,82.36
2018-08-18T00:30:38.096Z,82.65
2018-08-18T00:31:38.063Z,82.94
2018-08-18T00:32:38.042Z,82.84
2018-08-18T00:33:38.010Z,82.94
2018-08-18T00:34:37.970Z,82.75
2018-08-18T00:35:37.953Z,82.94
2018-08-18T00:36:37.912Z,82.84
2018-08-18T00:37:37.880Z,82.65
2018-08-18T00:38:38.141Z,82.75
2018-08-18T00:39:37.818Z,83.04
2018-08-18T00:40:37.790Z,82.94
2018-08-18T00:41:37.757Z,83.04
2018-08-18T00:42:37.736Z,82.75
2018-08-18T00:43:37.699Z,83.23
2018-08-18T00:44:37.857Z,83.04
2018-08-18T00:45:37.628Z,82.94
2018-08-18T00:46:37.595Z,82.94
2018-08-18T00:47:37.560Z,82.94
2018-08-18T00:48:37.543Z,82.84
2018-08-18T00:49:37.813Z,82.65
2018-08-18T00:50:37.477Z,83.62
2018-08-18T00:51:37.437Z,83.29
2018-08-18T00:52:37.412Z,83.67
2018-08-18T00:53:37.572Z,84.25
2018-08-18T00:54:37.346Z,84.16
2018-08-18T00:55:37.311Z,84.25
2018-08-18T00:56:37.285Z,84.44
2018-08-18T00:57:37.249Z,84.25
2018-08-18T00:58:37.223Z,84.25
2018-08-18T00:59:37.235Z,84.83
2018-08-18T01:00:37.165Z,84.54
2018-08-18T01:01:37.125Z,84.74
2018-08-18T01:02:37.190Z,84.74
2018-08-18T01:03:37.125Z,84.74
2018-08-18T01:04:37.047Z,84.54
2018-08-18T01:05:36.997Z,84.74
2018-08-18T01:06:36.976Z,84.93
2018-08-18T01:07:36.946Z,84.64
2018-08-18T01:08:36.918Z,84.64
2018-08-18T01:09:36.881Z,85.22
2018-08-18T01:10:36.845Z,84.41
2018-08-18T01:11:36.940Z,84.64
2018-08-18T01:12:36.835Z,85.31
2018-08-18T01:13:36.765Z,84.69
2018-08-18T01:14:36.803Z,84.69
2018-08-18T01:15:36.708Z,84.74
2018-08-18T01:16:36.870Z,84.35
2018-08-18T01:17:36.621Z,84.64
2018-08-18T01:18:36.587Z,84.74
2018-08-18T01:19:36.564Z,84.93
2018-08-18T01:20:36.729Z,84.74
2018-08-18T01:21:36.496Z,84.74
2018-08-18T01:22:36.470Z,84.64
2018-08-18T01:23:36.458Z,84.44
2018-08-18T01:24:36.405Z,84.35
2018-08-18T01:25:36.371Z,84.74
2018-08-18T01:26:36.340Z,84.69
2018-08-18T01:27:36.310Z,84.59
2018-08-18T01:28:36.273Z,84.50
2018-08-18T01:29:36.240Z,84.54
2018-08-18T01:30:36.223Z,84.59
2018-08-18T01:31:36.185Z,84.69
2018-08-18T01:32:36.156Z,84.59
2018-08-18T01:33:36.116Z,84.69
2018-08-18T01:34:36.083Z,85.27
2018-08-18T01:35:36.055Z,85.17
2018-08-18T01:36:36.032Z,84.59
2018-08-18T01:37:36.009Z,84.59
2018-08-18T01:38:35.968Z,84.59
2018-08-18T01:39:35.934Z,83.92
2018-08-18T01:40:35.929Z,84.69
2018-08-18T01:41:35.887Z,85.27
2018-08-18T01:42:35.839Z,84.89
2018-08-18T01:43:35.805Z,85.27
2018-08-18T01:44:35.770Z,85.27
2018-08-18T01:45:35.745Z,85.17
2018-08-18T01:46:35.711Z,84.89
2018-08-18T01:47:35.675Z,84.59
2018-08-18T01:48:35.646Z,84.89
2018-08-18T01:49:35.610Z,84.89
2018-08-18T01:50:35.586Z,84.89
2018-08-18T01:51:35.903Z,84.69
2018-08-18T01:52:35.516Z,84.89
2018-08-18T01:53:35.492Z,85.46
2018-08-18T01:54:35.459Z,85.37
2018-08-18T01:55:35.437Z,85.75
2018-08-18T01:56:35.400Z,85.52
2018-08-18T01:58:35.350Z,85.56
2018-08-18T01:59:35.296Z,85.27
2018-08-18T02:00:35.264Z,85.46
2018-08-18T02:01:35.242Z,85.46
2018-08-18T02:02:35.199Z,85.37
2018-08-18T02:03:35.190Z,85.33
2018-08-18T02:04:35.152Z,85.42
2018-08-18T02:05:35.102Z,85.27
2018-08-18T02:06:35.087Z,85.66
2018-08-18T02:07:35.047Z,86.04
2018-08-18T02:08:35.022Z,86.04
2018-08-18T02:09:34.979Z,85.71
2018-08-18T02:10:34.963Z,85.91
2018-08-18T02:11:34.919Z,85.75
2018-08-18T02:12:34.894Z,85.94
2018-08-18T02:13:34.859Z,85.94
2018-08-18T02:14:34.820Z,85.85
2018-08-18T02:15:34.792Z,86.00
2018-08-18T02:16:34.769Z,86.14
2018-08-18T02:17:34.738Z,85.75
2018-08-18T02:18:34.695Z,85.56
2018-08-18T02:19:34.671Z,85.94
2018-08-18T02:20:34.638Z,86.04
2018-08-18T02:21:34.597Z,86.29
2018-08-18T02:22:34.667Z,86.29
2018-08-18T02:23:34.547Z,86.14
2018-08-18T02:24:34.500Z,86.19
2018-08-18T02:25:34.477Z,86.10
2018-08-18T02:26:34.440Z,86.04
2018-08-18T02:27:34.409Z,86.04
2018-08-18T02:28:34.377Z,86.04
2018-08-18T02:29:34.653Z,85.85
2018-08-18T02:30:34.319Z,85.81
2018-08-18T02:31:34.279Z,86.24
2018-08-18T02:32:34.249Z,85.71
2018-08-18T02:33:34.218Z,86.24
2018-08-18T02:34:34.186Z,86.14
2018-08-18T02:35:34.155Z,86.52
2018-08-18T02:36:34.128Z,86.96
2018-08-18T02:37:34.091Z,86.43
2018-08-18T02:38:34.056Z,86.48
2018-08-18T02:39:34.052Z,86.39
2018-08-18T02:40:34.010Z,86.62
2018-08-18T02:41:33.978Z,86.14
2018-08-18T02:42:33.949Z,86.52
2018-08-18T02:43:34.208Z,86.33
2018-08-18T02:44:33.875Z,86.62
2018-08-18T02:45:33.846Z,86.52
2018-08-18T02:46:33.810Z,86.43
2018-08-18T02:47:33.770Z,86.62
2018-08-18T02:48:33.742Z,86.52
2018-08-18T02:49:33.921Z,86.04
2018-08-18T02:50:33.696Z,86.14
2018-08-18T02:51:33.645Z,86.24
2018-08-18T02:52:33.622Z,85.71
2018-08-18T02:53:33.590Z,85.75
2018-08-18T02:55:33.523Z,85.85
2018-08-18T02:56:33.490Z,85.94
2018-08-18T02:57:33.530Z,85.91
2018-08-18T02:58:33.426Z,85.94
2018-08-18T02:59:33.392Z,85.91
2018-08-18T03:00:33.367Z,85.71
2018-08-18T03:01:33.336Z,85.66
2018-08-18T03:02:33.312Z,85.66
2018-08-18T03:03:33.269Z,86.14
2018-08-18T03:04:33.245Z,86.10
2018-08-18T03:05:33.304Z,86.29
2018-08-18T03:06:33.177Z,85.52
2018-08-18T03:07:33.143Z,85.71
2018-08-18T03:08:33.109Z,85.81
2018-08-18T03:09:33.095Z,86.05
2018-08-18T03:10:33.068Z,86.54
2018-08-18T03:11:33.367Z,86.92
2018-08-18T03:12:32.989Z,87.12
2018-08-18T03:13:32.962Z,86.82
2018-08-18T03:14:32.921Z,87.02
2018-08-18T03:15:32.891Z,87.60
2018-08-18T03:16:32.872Z,87.60
2018-08-18T03:17:33.044Z,87.79
2018-08-18T03:18:32.799Z,88.08
2018-08-18T03:19:32.762Z,87.50
2018-08-18T03:20:32.733Z,88.17
2018-08-18T03:21:32.700Z,88.08
2018-08-18T03:22:32.717Z,87.70
2018-08-18T03:23:32.639Z,88.08
2018-08-18T03:24:32.611Z,87.88
2018-08-18T03:25:32.580Z,88.08
2018-08-18T03:26:32.553Z,87.70
2018-08-18T03:27:32.509Z,88.27
2018-08-18T03:28:32.588Z,87.98
2018-08-18T03:29:32.443Z,88.27
2018-08-18T03:30:32.414Z,88.08
2018-08-18T03:31:32.385Z,88.27
2018-08-18T03:32:32.350Z,88.08
2018-08-18T03:33:32.321Z,87.88
2018-08-18T03:34:32.349Z,87.88
2018-08-18T03:35:32.259Z,87.88
2018-08-18T03:36:32.222Z,87.70
2018-08-18T03:37:32.192Z,87.50
2018-08-18T03:38:32.164Z,87.40
2018-08-18T03:39:32.141Z,87.50
2018-08-18T03:40:32.094Z,87.79
2018-08-18T03:41:32.065Z,87.70
2018-08-18T03:42:32.114Z,87.79
2018-08-18T03:43:32.001Z,87.70
2018-08-18T03:44:32.078Z,87.50
2018-08-18T03:45:31.938Z,87.79
2018-08-18T03:46:31.906Z,87.88
2018-08-18T03:47:31.871Z,88.17
2018-08-18T03:48:31.841Z,87.88
2018-08-18T03:49:31.813Z,87.30
2018-08-18T03:50:31.784Z,87.16
2018-08-18T03:51:31.757Z,86.92
2018-08-18T03:52:31.776Z,87.50
2018-08-18T03:53:31.681Z,87.45
2018-08-18T03:54:31.659Z,86.96
2018-08-18T03:55:31.622Z,86.87
2018-08-18T03:56:31.585Z,86.87
2018-08-18T03:57:31.583Z,86.87
2018-08-18T03:58:31.524Z,87.06
2018-08-18T03:59:31.500Z,87.26
2018-08-18T04:00:31.659Z,87.35
2018-08-18T04:01:31.442Z,87.54
2018-08-18T04:02:31.393Z,87.30
2018-08-18T04:03:31.364Z,87.35
2018-08-18T04:04:31.357Z,87.30
2018-08-18T04:05:31.303Z,87.50
2018-08-18T04:06:31.265Z,87.64
2018-08-18T04:07:31.233Z,87.93
2018-08-18T04:08:31.202Z,87.40
2018-08-18T04:09:31.176Z,87.60
2018-08-18T04:10:31.141Z,87.98
2018-08-18T04:11:31.112Z,87.50
2018-08-18T04:12:31.081Z,87.88
2018-08-18T04:13:31.047Z,87.50
2018-08-18T04:14:31.052Z,87.60
2018-08-18T04:15:30.987Z,88.08
2018-08-18T04:16:30.953Z,87.88
2018-08-18T04:17:30.923Z,87.79
2018-08-18T04:18:30.884Z,88.17
2018-08-18T04:19:30.854Z,87.79
2018-08-18T04:20:30.822Z,88.08
2018-08-18T04:21:30.788Z,88.08
2018-08-18T04:22:30.754Z,87.98
2018-08-18T04:23:30.729Z,87.60
2018-08-18T04:24:30.706Z,87.79
2018-08-18T04:25:30.673Z,88.08
2018-08-18T04:26:30.639Z,87.60
2018-08-18T04:27:30.600Z,87.40
2018-08-18T04:28:30.569Z,87.30
2018-08-18T04:29:30.541Z,87.54
2018-08-18T04:30:30.503Z,86.92
2018-08-18T04:31:30.471Z,86.82
2018-08-18T04:32:30.439Z,86.77
2018-08-18T04:33:30.413Z,86.87
2018-08-18T04:34:30.382Z,87.16
2018-08-18T04:35:30.346Z,87.02
2018-08-18T04:36:30.312Z,86.63
2018-08-18T04:37:30.280Z,86.82
2018-08-18T04:38:30.248Z,86.63
2018-08-18T04:39:30.222Z,86.73
2018-08-18T04:40:30.188Z,86.68
2018-08-18T04:41:30.160Z,86.92
2018-08-18T04:42:30.122Z,86.63
2018-08-18T04:43:30.200Z,86.82
2018-08-18T04:44:30.057Z,86.44
2018-08-18T04:45:30.044Z,87.12
2018-08-18T04:46:30.001Z,86.82
2018-08-18T04:47:30.117Z,86.92
2018-08-18T04:48:29.935Z,87.30
2018-08-18T04:49:29.912Z,87.30
2018-08-18T04:50:29.953Z,87.50
2018-08-18T04:51:29.832Z,87.50
2018-08-18T04:52:29.826Z,87.84
2018-08-18T04:53:29.798Z,87.79
2018-08-18T04:54:29.758Z,87.70
2018-08-18T04:55:29.708Z,87.70
2018-08-18T04:56:29.677Z,88.08
2018-08-18T04:57:29.643Z,87.98
2018-08-18T04:58:29.613Z,87.88
2018-08-18T04:59:29.677Z,88.08
2018-08-18T05:00:29.549Z,87.88
2018-08-18T05:01:29.525Z,87.98
2018-08-18T05:02:29.486Z,87.79
2018-08-18T05:03:29.677Z,88.04
2018-08-18T05:04:29.424Z,87.74
2018-08-18T05:05:29.392Z,88.08
2018-08-18T05:06:29.360Z,87.65
2018-08-18T05:07:29.332Z,87.84
2018-08-18T05:08:29.299Z,88.04
2018-08-18T05:09:29.273Z,88.08
2018-08-18T05:10:29.236Z,88.04
2018-08-18T05:11:29.230Z,88.04
2018-08-18T05:12:29.169Z,88.04
2018-08-18T05:13:29.142Z,88.23
2018-08-18T05:14:29.205Z,87.94
2018-08-18T05:15:29.068Z,87.88
2018-08-18T05:16:29.037Z,88.08
2018-08-18T05:17:29.008Z,87.30
2018-08-18T05:18:28.983Z,87.02
2018-08-18T05:19:28.945Z,86.73
2018-08-18T05:20:29.215Z,86.63
2018-08-18T05:21:28.898Z,86.44
2018-08-18T05:22:28.849Z,86.25
2018-08-18T05:23:28.814Z,86.35
2018-08-18T05:24:28.785Z,85.96
2018-08-18T05:25:28.759Z,85.67
2018-08-18T05:26:28.824Z,85.86
2018-08-18T05:27:28.689Z,85.96
2018-08-18T05:28:28.667Z,85.57
2018-08-18T05:29:28.629Z,86.44
2018-08-18T05:30:28.589Z,85.77
2018-08-18T05:31:28.576Z,85.96
2018-08-18T05:32:28.526Z,85.86
2018-08-18T05:33:28.499Z,86.05
2018-08-18T05:34:28.467Z,85.86
2018-08-18T05:35:28.429Z,85.77
2018-08-18T05:36:28.452Z,85.86
2018-08-18T05:37:28.717Z,85.34
2018-08-18T05:38:28.334Z,85.91
2018-08-18T05:39:28.310Z,85.82
2018-08-18T05:40:28.307Z,85.82
2018-08-18T05:41:28.242Z,86.30
2018-08-18T05:42:28.212Z,86.40
2018-08-18T05:43:28.178Z,86.01
2018-08-18T05:44:28.145Z,86.01
2018-08-18T05:45:28.114Z,86.30
2018-08-18T05:46:28.081Z,85.72
2018-08-18T05:47:28.050Z,86.01
2018-08-18T05:48:28.228Z,85.91
2018-08-18T05:49:28.079Z,85.82
2018-08-18T05:50:27.955Z,85.91
2018-08-18T05:51:27.919Z,85.91
2018-08-18T05:52:27.889Z,86.40
2018-08-18T05:53:27.861Z,86.21
2018-08-18T05:54:27.972Z,86.49
2018-08-18T05:55:27.820Z,86.88
2018-08-18T05:56:27.759Z,86.55
2018-08-18T05:57:27.731Z,87.12
2018-08-18T05:58:27.692Z,86.74
2018-08-18T05:59:27.669Z,86.83
2018-08-18T06:00:27.630Z,87.32
2018-08-18T06:01:27.609Z,87.60
2018-08-18T06:02:27.570Z,87.60
2018-08-18T06:03:27.568Z,87.51
2018-08-18T06:04:27.537Z,87.80
2018-08-18T06:05:27.471Z,87.60
2018-08-18T06:06:27.440Z,87.41
2018-08-18T06:07:27.405Z,87.41
2018-08-18T06:08:27.376Z,87.80
2018-08-18T06:09:27.345Z,87.60
2018-08-18T06:10:27.314Z,87.60
2018-08-18T06:11:27.284Z,87.41
2018-08-18T06:12:27.243Z,86.93
2018-08-18T06:13:27.211Z,87.22
2018-08-18T06:14:27.179Z,87.41
2018-08-18T06:15:27.145Z,87.41
2018-08-18T06:16:27.213Z,87.99
2018-08-18T06:17:27.084Z,87.70
2018-08-18T06:18:27.079Z,87.80
2018-08-18T06:19:27.020Z,87.51
2018-08-18T06:20:26.987Z,87.99
2018-08-18T06:21:26.952Z,88.09
2018-08-18T06:22:26.923Z,88.09
2018-08-18T06:23:26.893Z,88.57
2018-08-18T06:24:26.855Z,88.67
2018-08-18T06:25:26.824Z,88.38
2018-08-18T06:26:26.789Z,88.76
2018-08-18T06:27:26.760Z,88.47
2018-08-18T06:28:26.727Z,88.85
2018-08-18T06:29:26.695Z,88.38
2018-08-18T06:30:26.665Z,88.18
2018-08-18T06:31:26.629Z,87.99
2018-08-18T06:32:26.610Z,87.99
2018-08-18T06:33:26.669Z,88.38
2018-08-18T06:34:26.554Z,87.99
2018-08-18T06:35:26.514Z,87.99
2018-08-18T06:36:26.468Z,87.99
2018-08-18T06:37:26.439Z,87.80
2018-08-18T06:38:26.406Z,88.09
2018-08-18T06:39:26.375Z,88.18
2018-08-18T06:40:26.339Z,87.60
2018-08-18T06:41:26.343Z,87.99
2018-08-18T06:42:26.276Z,87.80
2018-08-18T06:43:26.276Z,87.90
2018-08-18T06:44:26.212Z,87.90
2018-08-18T06:45:26.183Z,87.70
2018-08-18T06:46:26.152Z,87.70
2018-08-18T06:47:26.115Z,87.32
2018-08-18T06:48:26.085Z,87.22
2018-08-18T06:49:26.059Z,87.32
2018-08-18T06:50:26.019Z,87.41
2018-08-18T06:51:25.987Z,87.32
2018-08-18T06:52:25.958Z,87.32
2018-08-18T06:53:25.922Z,87.60
2018-08-18T06:54:25.947Z,87.22
2018-08-18T06:55:25.856Z,87.22
2018-08-18T06:56:25.825Z,87.22
2018-08-18T06:57:25.793Z,86.83
2018-08-18T06:58:25.760Z,86.74
2018-08-18T07:00:25.726Z,86.65
2018-08-18T07:01:25.663Z,87.12
2018-08-18T07:02:25.629Z,86.74
2018-08-18T07:03:25.598Z,86.83
2018-08-18T07:04:25.565Z,86.74
2018-08-18T07:05:25.533Z,86.83
2018-08-18T07:06:25.509Z,86.79
2018-08-18T07:07:25.468Z,87.08
2018-08-18T07:08:25.436Z,86.41
2018-08-18T07:09:25.411Z,87.08
2018-08-18T07:10:25.370Z,86.79
2018-08-18T07:11:25.339Z,86.55
2018-08-18T07:12:25.304Z,86.41
2018-08-18T07:13:25.276Z,86.79
2018-08-18T07:14:25.242Z,86.51
2018-08-18T07:15:25.209Z,86.22
2018-08-18T07:16:25.175Z,86.22
2018-08-18T07:17:25.142Z,86.69
2018-08-18T07:18:25.112Z,86.51
2018-08-18T07:19:25.101Z,86.51
2018-08-18T07:20:25.056Z,86.31
2018-08-18T07:21:25.014Z,86.51
2018-08-18T07:22:24.982Z,86.22
2018-08-18T07:23:24.947Z,86.69
2018-08-18T07:24:24.919Z,86.99
2018-08-18T07:25:24.886Z,86.89
2018-08-18T07:26:24.850Z,87.37
2018-08-18T07:27:24.821Z,87.18
2018-08-18T07:28:24.883Z,87.18
2018-08-18T07:29:24.761Z,87.56
2018-08-18T07:30:24.721Z,87.85
2018-08-18T07:31:24.694Z,87.56
2018-08-18T07:32:24.654Z,88.04
2018-08-18T07:33:24.624Z,87.95
2018-08-18T07:34:24.592Z,87.66
2018-08-18T07:35:24.556Z,87.95
2018-08-18T07:36:24.777Z,87.95
2018-08-18T07:37:24.506Z,88.14
2018-08-18T07:38:24.458Z,88.24
2018-08-18T07:39:24.429Z,88.14
2018-08-18T07:40:24.395Z,88.14
2018-08-18T07:41:24.363Z,88.81
2018-08-18T07:42:24.339Z,88.53
2018-08-18T07:43:24.320Z,88.71
2018-08-18T07:44:24.262Z,88.53
2018-08-18T07:45:24.235Z,88.91
2018-08-18T07:46:24.255Z,88.62
2018-08-18T07:47:24.271Z,89.01
2018-08-18T07:48:24.140Z,89.01
2018-08-18T07:49:24.105Z,88.43
2018-08-18T07:50:24.068Z,88.91
2018-08-18T07:51:24.088Z,88.91
2018-08-18T07:52:24.006Z,89.01
2018-08-18T07:53:24.388Z,89.01
2018-08-18T07:54:23.943Z,89.01
2018-08-18T07:55:23.905Z,88.91
2018-08-18T07:56:23.872Z,88.81
2018-08-18T07:57:23.842Z,88.91
2018-08-18T07:58:23.812Z,89.78
2018-08-18T07:59:23.904Z,88.91
2018-08-18T08:00:23.742Z,88.91
2018-08-18T08:01:23.711Z,89.49
2018-08-18T08:02:23.678Z,89.49
2018-08-18T08:03:23.649Z,89.29
2018-08-18T08:04:23.614Z,89.39
2018-08-18T08:05:23.583Z,89.39
2018-08-18T08:06:23.547Z,89.49
2018-08-18T08:07:23.515Z,89.49
2018-08-18T08:08:23.486Z,89.58
2018-08-18T08:09:23.449Z,88.81
2018-08-18T08:10:23.565Z,88.91
2018-08-18T08:11:23.426Z,88.91
2018-08-18T08:12:23.392Z,89.10
2018-08-18T08:13:23.321Z,88.91
2018-08-18T08:14:23.285Z,89.01
2018-08-18T08:15:23.257Z,88.53
2018-08-18T08:16:23.228Z,88.62
2018-08-18T08:17:23.203Z,88.62
2018-08-18T08:18:23.213Z,88.33
2018-08-18T08:19:23.122Z,88.53
2018-08-18T08:20:23.100Z,88.81
2018-08-18T08:21:23.058Z,89.01
2018-08-18T08:22:23.023Z,89.58
2018-08-18T08:23:23.001Z,89.29
2018-08-18T08:24:22.960Z,89.49
2018-08-18T08:25:22.925Z,89.20
2018-08-18T08:26:22.893Z,89.78
2018-08-18T08:27:22.865Z,89.58
2018-08-18T08:28:22.833Z,89.58
2018-08-18T08:29:22.798Z,89.58
2018-08-18T08:30:22.765Z,89.58
2018-08-18T08:31:22.732Z,89.49
2018-08-18T08:32:22.701Z,89.39
2018-08-18T08:33:22.666Z,89.29
2018-08-18T08:34:22.639Z,89.49
2018-08-18T08:35:22.598Z,89.87
2018-08-18T08:36:22.571Z,89.87
2018-08-18T08:37:22.540Z,89.97
2018-08-18T08:38:22.503Z,89.58
2018-08-18T08:39:22.525Z,89.20
2018-08-18T08:40:22.439Z,89.29
2018-08-18T08:41:22.414Z,89.78
2018-08-18T08:42:22.372Z,89.54
2018-08-18T08:43:22.475Z,89.25
2018-08-18T08:44:22.312Z,89.15
2018-08-18T08:45:22.278Z,89.54
2018-08-18T08:46:22.253Z,89.20
2018-08-18T08:47:22.456Z,89.29
2018-08-18T08:48:22.181Z,89.64
2018-08-18T08:49:22.141Z,89.58
2018-08-18T08:50:22.116Z,89.49
2018-08-18T08:51:22.080Z,88.81
2018-08-18T08:52:22.045Z,89.58
2018-08-18T08:53:22.011Z,89.39
2018-08-18T08:54:21.980Z,88.71
2018-08-18T08:55:21.947Z,88.81
2018-08-18T08:56:21.924Z,88.71
2018-08-18T08:57:21.890Z,88.87
2018-08-18T08:58:21.847Z,88.57
2018-08-18T08:59:21.822Z,88.77
2018-08-18T09:00:21.787Z,88.39
2018-08-18T09:01:21.753Z,88.39
2018-08-18T09:02:21.719Z,88.57
2018-08-18T09:03:21.692Z,88.57
2018-08-18T09:04:21.661Z,88.53
2018-08-18T09:05:21.619Z,88.77
2018-08-18T09:06:21.589Z,88.39
2018-08-18T09:07:21.560Z,88.48
2018-08-18T09:08:21.520Z,88.96
2018-08-18T09:09:21.590Z,88.67
2018-08-18T09:10:21.493Z,88.67
2018-08-18T09:11:21.425Z,88.48
2018-08-18T09:12:21.420Z,88.57
2018-08-18T09:13:21.359Z,88.67
2018-08-18T09:14:21.329Z,88.00
2018-08-18T09:15:21.304Z,88.10
2018-08-18T09:16:21.257Z,87.90
2018-08-18T09:17:21.225Z,88.67
2018-08-18T09:18:21.201Z,88.19
2018-08-18T09:19:21.167Z,88.67
2018-08-18T09:20:21.387Z,89.06
2018-08-18T09:21:21.096Z,88.96
2018-08-18T09:22:21.061Z,88.77
2018-08-18T09:23:21.027Z,88.87
2018-08-18T09:24:20.994Z,88.67
2018-08-18T09:25:20.965Z,89.44
2018-08-18T09:26:21.055Z,89.35
2018-08-18T09:27:20.900Z,89.54
2018-08-18T09:28:20.873Z,89.54
2018-08-18T09:29:20.834Z,89.44
2018-08-18T09:30:20.830Z,89.64
2018-08-18T09:31:20.773Z,90.02
2018-08-18T09:32:20.735Z,90.31
2018-08-18T09:33:20.707Z,90.12
2018-08-18T09:34:20.667Z,90.31
2018-08-18T09:35:20.639Z,90.12
2018-08-18T09:36:20.774Z,90.41
2018-08-18T09:37:20.569Z,90.21
2018-08-18T09:38:20.535Z,90.12
2018-08-18T09:39:20.507Z,90.31
2018-08-18T09:40:20.480Z,90.12
2018-08-18T09:41:20.439Z,89.97
2018-08-18T09:42:20.605Z,90.55
2018-08-18T09:43:20.372Z,90.45
2018-08-18T09:44:20.341Z,90.55
2018-08-18T09:45:20.400Z,90.35
2018-08-18T09:46:20.280Z,90.73
2018-08-18T09:47:20.271Z,90.83
2018-08-18T09:48:20.311Z,90.93
2018-08-18T09:49:20.175Z,90.73
2018-08-18T09:50:20.142Z,90.73
2018-08-18T09:51:20.112Z,91.22
2018-08-18T09:52:20.081Z,91.03
2018-08-18T09:53:20.048Z,91.41
2018-08-18T09:54:20.338Z,91.41
2018-08-18T09:55:20.006Z,91.31
2018-08-18T09:56:19.952Z,91.22
2018-08-18T09:57:19.917Z,91.22
2018-08-18T09:58:19.881Z,91.13
2018-08-18T09:59:19.874Z,90.93
2018-08-18T10:00:19.920Z,90.93
2018-08-18T10:01:19.786Z,90.73
2018-08-18T10:02:19.748Z,90.73
2018-08-18T10:03:19.719Z,91.03
2018-08-18T10:04:19.692Z,91.22
2018-08-18T10:05:19.656Z,90.73
2018-08-18T10:06:19.681Z,90.93
2018-08-18T10:07:19.599Z,91.60
2018-08-18T10:08:19.552Z,91.13
2018-08-18T10:09:19.520Z,90.93
2018-08-18T10:10:19.496Z,91.51
2018-08-18T10:11:19.711Z,91.70
2018-08-18T10:12:19.533Z,91.13
2018-08-18T10:13:19.394Z,91.51
2018-08-18T10:14:19.360Z,91.22
2018-08-18T10:15:19.377Z,91.31
2018-08-18T10:16:19.294Z,91.31
2018-08-18T10:17:19.360Z,90.93
2018-08-18T10:18:19.222Z,91.13
2018-08-18T10:19:19.197Z,91.03
2018-08-18T10:20:19.158Z,91.22
2018-08-18T10:21:19.131Z,90.93
2018-08-18T10:22:19.091Z,91.22
2018-08-18T10:23:19.162Z,90.73
2018-08-18T10:24:19.034Z,90.73
2018-08-18T10:25:18.996Z,90.45
2018-08-18T10:26:18.963Z,90.20
2018-08-18T10:27:18.961Z,90.11
2018-08-18T10:28:18.900Z,90.11
2018-08-18T10:29:18.864Z,90.20
2018-08-18T10:30:18.835Z,90.11
2018-08-18T10:31:18.802Z,90.40
2018-08-18T10:32:18.770Z,90.20
2018-08-18T10:33:18.807Z,90.20
2018-08-18T10:34:18.698Z,90.73
2018-08-18T10:35:18.675Z,90.73
2018-08-18T10:36:18.639Z,90.25
2018-08-18T10:37:18.603Z,90.30
2018-08-18T10:38:18.572Z,89.96
2018-08-18T10:39:18.737Z,89.29
2018-08-18T10:40:18.514Z,89.77
2018-08-18T10:41:18.474Z,89.67
2018-08-18T10:42:18.445Z,89.48
2018-08-18T10:43:18.407Z,89.58
2018-08-18T10:44:18.382Z,89.29
2018-08-18T10:45:18.344Z,88.90
2018-08-18T10:46:18.308Z,89.19
2018-08-18T10:47:18.284Z,89.29
2018-08-18T10:48:18.243Z,89.09
2018-08-18T10:49:18.214Z,89.14
2018-08-18T10:50:18.279Z,89.14
2018-08-18T10:51:18.149Z,88.85
2018-08-18T10:52:18.150Z,88.75
2018-08-18T10:53:18.087Z,89.14
2018-08-18T10:54:18.058Z,88.95
2018-08-18T10:55:18.023Z,88.75
2018-08-18T10:56:17.986Z,88.71
2018-08-18T10:57:17.955Z,89.14
2018-08-18T10:58:17.924Z,89.04
2018-08-18T10:59:17.894Z,89.04
2018-08-18T11:00:17.863Z,89.04
2018-08-18T11:01:17.834Z,89.33
2018-08-18T11:02:17.801Z,89.04
2018-08-18T11:03:17.762Z,89.04
2018-08-18T11:04:17.734Z,89.04
2018-08-18T11:05:17.697Z,88.95
2018-08-18T11:06:17.671Z,89.04
2018-08-18T11:07:17.636Z,88.95
2018-08-18T11:08:17.604Z,88.95
2018-08-18T11:09:17.569Z,88.65
2018-08-18T11:10:17.544Z,88.85
2018-08-18T11:11:17.510Z,88.65
2018-08-18T11:12:17.753Z,89.09
2018-08-18T11:13:17.507Z,88.22
2018-08-18T11:14:17.412Z,88.51
2018-08-18T11:15:17.381Z,88.02
2018-08-18T11:16:17.347Z,88.12
2018-08-18T11:17:17.322Z,88.02
2018-08-18T11:18:17.537Z,87.93
2018-08-18T11:19:17.249Z,88.12
2018-08-18T11:20:17.220Z,87.64
2018-08-18T11:21:17.185Z,87.40
2018-08-18T11:22:17.158Z,86.87
2018-08-18T11:23:17.127Z,86.91
2018-08-18T11:24:17.201Z,87.40
2018-08-18T11:25:17.078Z,86.82
2018-08-18T11:26:17.027Z,86.72
2018-08-18T11:27:17.000Z,86.82
2018-08-18T11:28:17.132Z,86.52
2018-08-18T11:29:16.934Z,86.43
2018-08-18T11:30:16.902Z,86.72
2018-08-18T11:31:16.872Z,86.04
2018-08-18T11:32:16.842Z,85.75
2018-08-18T11:33:16.816Z,85.94
2018-08-18T11:34:16.781Z,85.50
2018-08-18T11:35:16.788Z,85.60
2018-08-18T11:36:16.720Z,85.60
2018-08-18T11:37:16.680Z,85.22
2018-08-18T11:38:16.656Z,85.31
2018-08-18T11:40:16.585Z,85.02
2018-08-18T11:41:16.565Z,84.68
2018-08-18T11:42:16.526Z,85.26
2018-08-18T11:43:16.497Z,85.26
2018-08-18T11:44:16.476Z,84.97
2018-08-18T11:45:16.680Z,85.36
2018-08-18T11:46:16.402Z,85.26
2018-08-18T11:47:16.370Z,84.97
2018-08-18T11:48:16.344Z,84.78
2018-08-18T11:49:16.315Z,84.30
2018-08-18T11:50:16.284Z,84.00
2018-08-18T11:52:16.283Z,83.56
2018-08-18T11:53:16.185Z,82.98
2018-08-18T11:54:16.149Z,82.98
2018-08-18T11:55:16.121Z,82.98
2018-08-18T11:56:16.091Z,83.18
2018-08-18T11:57:16.068Z,83.08
2018-08-18T11:58:16.029Z,82.60
2018-08-18T11:59:16.003Z,82.11
2018-08-18T12:00:15.977Z,82.02
2018-08-18T12:01:15.934Z,81.63
2018-08-18T12:02:15.900Z,82.31
2018-08-18T12:03:16.225Z,81.53
2018-08-18T12:04:15.838Z,81.53
2018-08-18T12:05:15.814Z,81.34
2018-08-18T12:06:15.793Z,79.14
2018-08-18T12:07:15.754Z,75.09
2018-08-18T12:08:16.066Z,70.93
2018-08-18T12:09:15.691Z,67.41
2018-08-18T12:10:15.663Z,64.10
2018-08-18T12:11:15.624Z,61.60
2018-08-18T12:12:15.596Z,59.59
2018-08-18T12:13:15.876Z,57.60
2018-08-18T12:14:15.537Z,56.26
2018-08-18T12:15:15.502Z,54.36
2018-08-18T12:16:15.477Z,53.19
2018-08-18T12:17:15.456Z,53.42
2018-08-18T12:18:15.418Z,51.98
2018-08-18T12:19:15.429Z,51.00
2018-08-18T12:20:15.362Z,51.24
2018-08-18T12:21:15.333Z,50.98
2018-08-18T12:22:15.306Z,50.78
2018-08-18T12:23:15.287Z,50.22
2018-08-18T12:24:15.545Z,48.68
2018-08-18T12:25:15.237Z,48.38
2018-08-18T12:26:15.423Z,49.22
2018-08-18T12:27:15.167Z,51.14
2018-08-18T12:28:15.141Z,52.31
2018-08-18T12:29:15.172Z,51.34
2018-08-18T12:30:15.484Z,51.29
2018-08-18T12:31:15.061Z,49.77
2018-08-18T12:32:15.053Z,48.82
2018-08-18T12:33:15.005Z,47.47
2018-08-18T12:34:14.979Z,48.75
2018-08-18T12:35:14.953Z,48.77
2018-08-18T12:36:15.233Z,47.33
2018-08-18T12:37:14.976Z,46.47
2018-08-18T12:38:14.886Z,44.92
2018-08-18T12:39:14.849Z,45.24
2018-08-18T12:40:14.827Z,44.27
2018-08-18T12:41:14.806Z,43.51
2018-08-18T12:42:14.784Z,42.25
2018-08-18T12:43:14.758Z,41.98
2018-08-18T12:44:14.731Z,40.80
2018-08-18T12:45:14.709Z,39.84
2018-08-18T12:46:14.884Z,40.58
2018-08-18T12:47:14.658Z,41.17
2018-08-18T12:48:14.635Z,41.61
2018-08-18T12:49:14.638Z,42.11
2018-08-18T12:50:14.693Z,41.55
2018-08-18T12:51:14.574Z,40.31
2018-08-18T12:52:14.572Z,39.94
2018-08-18T12:53:14.523Z,39.74
2018-08-18T12:54:14.501Z,39.34
2018-08-18T12:55:14.484Z,39.25
2018-08-18T12:56:14.464Z,39.34
2018-08-18T12:57:14.691Z,39.15
2018-08-18T12:58:14.514Z,39.23